Time;durP1;ratioP1;P1;durP2;ratioP2;P2;SDS_P1;SDS_P2;PMS_P1;PMS_P2;Temp;Humidity;BMP_temperature;BMP_pressure;BME280_temperature;BME280_humidity;BME280_pressure;Samples;Min_cycle;Max_cycle;Signal;HPM_P1;HPM_P2
2022/10/23 00:01:37;;;;;;;8.83;5.83;;;12.70;99.90;;;;;;5201032;28;20435;-52
2022/10/23 00:04:16;;;;;;;9.30;5.30;;;12.60;99.90;;;;;;5193432;28;20438;-53
2022/10/23 00:06:47;;;;;;;7.43;6.23;;;12.60;99.90;;;;;;5192835;28;20484;-54
2022/10/23 00:09:23;;;;;;;10.10;6.37;;;12.60;99.90;;;;;;5202976;28;20442;-53
2022/10/23 00:11:53;;;;;;;7.63;6.20;;;12.60;99.90;;;;;;5202897;28;20548;-54
2022/10/23 00:14:24;;;;;;;6.50;5.87;;;12.50;99.90;;;;;;5204483;28;20525;-53
2022/10/23 00:16:55;;;;;;;12.60;7.60;;;12.50;99.90;;;;;;5197577;28;20208;-53
2022/10/23 00:19:25;;;;;;;7.97;6.57;;;12.50;99.90;;;;;;5195134;28;20191;-52
2022/10/23 00:21:56;;;;;;;9.40;6.90;;;12.50;99.90;;;;;;5194786;28;20180;-54
2022/10/23 00:24:27;;;;;;;11.97;7.20;;;12.50;99.90;;;;;;5203926;28;20222;-53
2022/10/23 00:26:58;;;;;;;7.07;6.37;;;12.40;99.90;;;;;;5198459;28;20478;-53
2022/10/23 00:29:28;;;;;;;10.03;6.60;;;12.50;99.90;;;;;;5191235;28;20204;-52
2022/10/23 00:31:59;;;;;;;11.20;6.23;;;12.50;99.90;;;;;;5185969;28;20187;-52
2022/10/23 00:34:29;;;;;;;14.83;7.10;;;12.40;99.90;;;;;;5195119;28;20188;-53
2022/10/23 00:37:00;;;;;;;12.03;7.50;;;12.40;99.90;;;;;;5198267;28;20299;-52
2022/10/23 00:39:30;;;;;;;12.53;6.13;;;12.40;99.90;;;;;;5202262;28;20238;-53
2022/10/23 00:42:01;;;;;;;8.87;6.37;;;12.50;99.90;;;;;;5205264;28;20354;-53
2022/10/23 00:44:31;;;;;;;10.43;6.10;;;12.50;99.90;;;;;;5194198;28;20219;-53
2022/10/23 00:47:02;;;;;;;8.97;6.00;;;12.60;99.90;;;;;;5196356;28;20187;-54
2022/10/23 00:49:33;;;;;;;14.17;6.90;;;12.60;99.90;;;;;;5198117;28;20295;-53
2022/10/23 00:52:07;;;;;;;8.27;6.37;;;12.60;99.90;;;;;;5201114;28;20195;-52
2022/10/23 00:54:42;;;;;;;6.97;5.93;;;12.70;99.90;;;;;;5202663;28;20523;-53
2022/10/23 00:57:14;;;;;;;12.43;6.30;;;12.80;99.90;;;;;;5206028;28;20468;-53
2022/10/23 00:59:45;;;;;;;7.43;6.20;;;12.80;99.90;;;;;;5209895;28;20474;-53
2022/10/23 01:02:15;;;;;;;9.30;6.60;;;12.90;99.90;;;;;;5198517;28;20513;-52
2022/10/23 01:04:46;;;;;;;11.00;6.87;;;13.00;99.90;;;;;;5199626;28;20176;-53
2022/10/23 01:07:43;;;;;;;7.00;6.30;;;13.00;99.90;;;;;;5201682;28;20191;-54
2022/10/23 01:10:32;;;;;;;10.03;5.60;;;13.10;99.90;;;;;;5201679;28;20246;-52
2022/10/23 01:13:13;;;;;;;9.47;5.30;;;13.10;99.90;;;;;;5193581;28;20843;-54
2022/10/23 01:15:58;;;;;;;9.47;5.70;;;13.10;99.90;;;;;;5206249;28;20450;-53
2022/10/23 01:18:48;;;;;;;5.80;4.67;;;13.10;99.90;;;;;;5190987;28;20517;-53
2022/10/23 01:21:46;;;;;;;5.60;5.10;;;13.20;99.90;;;;;;5200737;28;20426;-52
2022/10/23 01:25:08;;;;;;;9.50;4.60;;;13.10;99.90;;;;;;5205380;28;20419;-54
2022/10/23 01:27:41;;;;;;;4.60;4.20;;;13.10;99.90;;;;;;5181038;28;20949;-53
2022/10/23 01:30:14;;;;;;;5.13;4.73;;;13.10;99.90;;;;;;5191652;28;20514;-53
2022/10/23 01:32:52;;;;;;;8.90;4.80;;;13.00;99.90;;;;;;5207630;28;20426;-52
2022/10/23 01:35:44;;;;;;;8.40;4.77;;;12.90;99.90;;;;;;5193248;28;20798;-53
2022/10/23 01:38:30;;;;;;;5.60;5.10;;;12.90;99.90;;;;;;5208257;28;20556;-53
2022/10/23 01:41:05;;;;;;;4.77;4.27;;;12.90;99.90;;;;;;5198750;28;20487;-52
2022/10/23 01:43:56;;;;;;;5.13;4.73;;;12.80;99.90;;;;;;5201952;28;20465;-52
2022/10/23 01:46:29;;;;;;;9.67;5.60;;;12.80;99.90;;;;;;5207402;28;20435;-53
2022/10/23 01:49:01;;;;;;;6.93;4.73;;;12.80;99.90;;;;;;5193841;28;20819;-51
2022/10/23 01:51:33;;;;;;;5.67;5.17;;;12.70;99.90;;;;;;5192534;28;20434;-52
2022/10/23 01:54:07;;;;;;;12.33;5.67;;;12.70;99.90;;;;;;5197191;28;20438;-52
2022/10/23 01:56:42;;;;;;;5.70;5.27;;;12.70;99.90;;;;;;5205183;28;20450;-52
2022/10/23 01:59:17;;;;;;;11.63;5.10;;;12.70;99.90;;;;;;5200626;28;20955;-53
2022/10/23 02:01:51;;;;;;;9.90;5.80;;;12.80;99.90;;;;;;5200970;28;20462;-53
2022/10/23 02:04:38;;;;;;;10.73;6.43;;;12.80;99.90;;;;;;5193185;28;20435;-53
2022/10/23 02:07:09;;;;;;;5.93;5.23;;;12.80;99.90;;;;;;5193574;28;20442;-52
2022/10/23 02:09:39;;;;;;;6.87;4.67;;;12.90;99.90;;;;;;5191695;28;20431;-52
2022/10/23 02:12:23;;;;;;;9.07;4.80;;;12.90;99.90;;;;;;5201507;28;20211;-53
2022/10/23 02:15:01;;;;;;;6.13;4.67;;;12.90;99.90;;;;;;5195291;28;20512;-53
2022/10/23 02:17:45;;;;;;;6.17;4.90;;;12.80;99.90;;;;;;5203214;28;20458;-53
2022/10/23 02:20:34;;;;;;;5.00;4.60;;;12.80;99.90;;;;;;5204361;28;20493;-53
2022/10/23 02:23:17;;;;;;;9.30;5.33;;;12.80;99.90;;;;;;5204168;28;20438;-52
2022/10/23 02:26:03;;;;;;;6.20;5.30;;;12.90;99.90;;;;;;5203050;28;20511;-53
2022/10/23 02:28:42;;;;;;;12.47;5.03;;;12.90;99.90;;;;;;5204098;28;20883;-53
2022/10/23 02:31:16;;;;;;;5.30;4.80;;;13.00;99.90;;;;;;5201830;28;20431;-52
2022/10/23 02:33:47;;;;;;;6.50;5.30;;;13.10;99.90;;;;;;5189107;28;20415;-52
2022/10/23 02:36:18;;;;;;;8.80;5.47;;;13.10;99.90;;;;;;5205286;28;20441;-53
2022/10/23 02:38:49;;;;;;;7.30;5.20;;;13.20;99.90;;;;;;5199820;28;20498;-52
2022/10/23 02:41:25;;;;;;;9.27;4.63;;;13.20;99.90;;;;;;5204014;28;20847;-52
2022/10/23 02:44:23;;;;;;;8.23;4.83;;;13.20;99.90;;;;;;5198592;28;20179;-52
2022/10/23 02:47:11;;;;;;;5.27;4.60;;;13.20;99.90;;;;;;5205237;28;20446;-52
2022/10/23 02:49:52;;;;;;;5.10;4.60;;;13.20;99.90;;;;;;5202330;28;20467;-52
2022/10/23 02:52:46;;;;;;;6.03;5.43;;;13.20;99.90;;;;;;5198314;28;20450;-52
2022/10/23 02:55:43;;;;;;;6.07;5.47;;;13.20;99.90;;;;;;5188424;28;20570;-52
2022/10/23 02:58:30;;;;;;;11.10;5.30;;;13.10;99.90;;;;;;5210385;28;20513;-52
2022/10/23 03:01:24;;;;;;;5.70;5.20;;;13.10;99.90;;;;;;5204103;28;20442;-53
2022/10/23 03:03:58;;;;;;;8.10;5.97;;;13.00;99.90;;;;;;5199657;28;20846;-54
2022/10/23 03:06:28;;;;;;;5.17;4.50;;;12.90;99.90;;;;;;5192950;28;20925;-54
2022/10/23 03:09:05;;;;;;;5.53;5.13;;;12.90;99.90;;;;;;5200511;28;20462;-54
2022/10/23 03:11:35;;;;;;;11.60;4.70;;;12.80;99.90;;;;;;5196566;28;20176;-54
2022/10/23 03:14:06;;;;;;;5.03;4.63;;;12.80;99.90;;;;;;5195136;28;20435;-53
2022/10/23 03:16:40;;;;;;;4.37;4.07;;;12.70;99.90;;;;;;5194505;28;20214;-52
2022/10/23 03:19:11;;;;;;;5.20;4.70;;;12.60;99.90;;;;;;5193086;28;20660;-52
2022/10/23 03:21:41;;;;;;;5.23;4.73;;;12.50;99.90;;;;;;5195750;28;21017;-53
2022/10/23 03:24:12;;;;;;;5.03;4.73;;;12.40;99.90;;;;;;5204267;28;20433;-53
2022/10/23 03:26:43;;;;;;;4.70;4.40;;;12.40;99.90;;;;;;5204693;28;20317;-53
2022/10/23 03:29:13;;;;;;;7.43;4.80;;;12.30;99.90;;;;;;5193819;28;20211;-53
2022/10/23 03:31:44;;;;;;;12.53;6.67;;;12.20;99.90;;;;;;5199990;28;20187;-53
2022/10/23 03:34:14;;;;;;;6.30;5.70;;;12.20;99.90;;;;;;5194562;28;20191;-52
2022/10/23 03:36:45;;;;;;;11.40;6.10;;;12.20;99.90;;;;;;5202074;28;20211;-52
2022/10/23 03:39:16;;;;;;;12.80;7.00;;;12.30;99.90;;;;;;5199475;28;20196;-54
2022/10/23 03:41:47;;;;;;;9.53;5.97;;;12.20;99.90;;;;;;5198126;28;20188;-52
2022/10/23 03:44:18;;;;;;;10.40;5.97;;;12.20;99.90;;;;;;5189441;28;20974;-53
2022/10/23 03:46:48;;;;;;;8.30;6.27;;;12.20;99.90;;;;;;5195058;28;20430;-52
2022/10/23 03:49:19;;;;;;;7.93;7.07;;;12.10;99.90;;;;;;5199806;28;20208;-52
2022/10/23 03:51:51;;;;;;;7.67;6.83;;;12.00;99.90;;;;;;5198430;28;20196;-53
2022/10/23 03:54:24;;;;;;;7.43;6.63;;;12.00;99.90;;;;;;5199894;28;20183;-53
2022/10/23 03:56:55;;;;;;;8.70;6.83;;;11.90;99.90;;;;;;5200931;28;20462;-53
2022/10/23 03:59:26;;;;;;;6.63;5.63;;;11.90;99.90;;;;;;5237834;22;21088;-52
2022/10/23 04:01:57;;;;;;;6.73;5.63;;;11.80;99.90;;;;;;5221035;28;20184;-52
2022/10/23 04:04:27;;;;;;;5.63;5.23;;;11.80;99.90;;;;;;5219180;28;20434;-51
2022/10/23 04:07:00;;;;;;;6.87;5.90;;;11.70;99.90;;;;;;5219170;28;20194;-52
2022/10/23 04:09:31;;;;;;;6.53;5.93;;;11.70;99.90;;;;;;5208982;28;20200;-53
2022/10/23 04:12:02;;;;;;;7.87;6.53;;;11.60;99.90;;;;;;5217117;28;20450;-52
2022/10/23 04:14:32;;;;;;;7.97;7.17;;;11.60;99.90;;;;;;5194829;28;20187;-52
2022/10/23 04:17:03;;;;;;;12.67;8.33;;;11.50;99.90;;;;;;5197939;28;20208;-52
2022/10/23 04:19:33;;;;;;;11.00;7.40;;;11.50;99.90;;;;;;5196447;28;20207;-52
2022/10/23 04:22:04;;;;;;;10.33;6.30;;;11.50;99.90;;;;;;5204165;28;20204;-51
2022/10/23 04:24:35;;;;;;;14.43;8.07;;;11.40;99.90;;;;;;5205343;28;20184;-51
2022/10/23 04:27:05;;;;;;;10.70;8.13;;;11.40;99.90;;;;;;5199824;28;20187;-52
2022/10/23 04:29:36;;;;;;;16.20;7.93;;;11.40;99.90;;;;;;5205742;28;20679;-53
2022/10/23 04:32:07;;;;;;;8.80;7.63;;;11.30;99.90;;;;;;5195611;28;20198;-49
2022/10/23 04:34:37;;;;;;;14.77;7.63;;;11.30;99.90;;;;;;5192758;28;20238;-51
2022/10/23 04:37:08;;;;;;;10.50;8.00;;;11.30;99.90;;;;;;5205224;28;20282;-50
2022/10/23 04:39:39;;;;;;;10.80;6.90;;;11.20;99.90;;;;;;5203301;28;20585;-51
2022/10/23 04:42:09;;;;;;;10.43;6.60;;;11.20;99.90;;;;;;5220836;28;20187;-51
2022/10/23 04:44:40;;;;;;;11.67;7.40;;;11.20;99.90;;;;;;5201384;28;20175;-51
2022/10/23 04:47:11;;;;;;;8.87;7.97;;;11.20;99.90;;;;;;5201508;28;20552;-52
2022/10/23 04:49:41;;;;;;;8.77;7.17;;;11.10;99.90;;;;;;5205165;28;20651;-52
2022/10/23 04:52:12;;;;;;;12.07;7.80;;;11.10;99.90;;;;;;5204278;28;20188;-51
2022/10/23 04:54:42;;;;;;;11.57;8.23;;;11.10;99.90;;;;;;5199352;28;20184;-51
2022/10/23 04:57:13;;;;;;;11.40;8.20;;;10.90;99.90;;;;;;5200302;28;20294;-53
2022/10/23 04:59:44;;;;;;;16.33;8.87;;;11.10;99.90;;;;;;5192434;28;20247;-50
2022/10/23 05:02:14;;;;;;;9.70;7.93;;;11.00;99.90;;;;;;5191371;28;20233;-50
2022/10/23 05:04:45;;;;;;;9.50;8.13;;;11.00;99.90;;;;;;5202803;28;20290;-50
2022/10/23 05:07:15;;;;;;;9.23;7.90;;;11.00;99.90;;;;;;5203830;28;20209;-50
2022/10/23 05:09:46;;;;;;;11.30;8.30;;;10.90;99.90;;;;;;5206616;28;20222;-51
2022/10/23 05:12:17;;;;;;;12.60;8.73;;;10.90;99.90;;;;;;5216848;28;20191;-51
2022/10/23 05:14:47;;;;;;;20.40;8.50;;;10.90;99.90;;;;;;5205633;28;20184;-51
2022/10/23 05:17:22;;;;;;;12.37;9.50;;;10.90;99.90;;;;;;5199418;28;20335;-51
2022/10/23 05:19:55;;;;;;;12.23;8.70;;;10.90;99.90;;;;;;5214078;28;20311;-51
2022/10/23 05:22:31;;;;;;;13.57;9.00;;;10.90;99.90;;;;;;5193863;28;20972;-51
2022/10/23 05:25:03;;;;;;;16.97;9.30;;;10.90;99.90;;;;;;5220519;28;20487;-51
2022/10/23 05:27:34;;;;;;;21.23;9.40;;;10.90;99.90;;;;;;5185397;28;20444;-51
2022/10/23 05:30:05;;;;;;;16.37;10.40;;;10.90;99.90;;;;;;5203784;28;20462;-49
2022/10/23 05:32:37;;;;;;;18.00;10.47;;;11.00;99.90;;;;;;5203488;28;20633;-52
2022/10/23 05:35:20;;;;;;;15.90;9.97;;;11.00;99.90;;;;;;5203497;28;20959;-51
2022/10/23 05:37:53;;;;;;;12.20;8.30;;;11.00;99.90;;;;;;5201871;28;20516;-50
2022/10/23 05:40:24;;;;;;;13.40;10.33;;;11.00;99.90;;;;;;5216044;28;20505;-52
2022/10/23 05:42:55;;;;;;;18.00;10.00;;;11.00;99.90;;;;;;5200226;28;20880;-52
2022/10/23 05:45:25;;;;;;;16.10;11.40;;;10.90;99.90;;;;;;5197588;28;20473;-50
2022/10/23 05:47:56;;;;;;;11.10;9.50;;;10.90;99.90;;;;;;5220114;28;20253;-51
2022/10/23 05:50:26;;;;;;;12.43;10.07;;;10.90;99.90;;;;;;5205893;28;20242;-52
2022/10/23 05:52:57;;;;;;;14.40;10.63;;;11.00;99.90;;;;;;5204841;28;20261;-52
2022/10/23 05:55:28;;;;;;;15.67;11.00;;;11.00;99.90;;;;;;5221418;28;20602;-52
2022/10/23 05:58:01;;;;;;;18.03;11.10;;;11.00;99.90;;;;;;5204082;28;20211;-51
2022/10/23 06:00:32;;;;;;;15.70;10.87;;;11.00;99.90;;;;;;5205669;28;20667;-50
2022/10/23 06:03:02;;;;;;;12.83;9.90;;;11.00;99.90;;;;;;5222926;28;20441;-51
2022/10/23 06:05:33;;;;;;;15.67;10.40;;;11.10;99.90;;;;;;5223369;28;20597;-49
2022/10/23 06:08:04;;;;;;;11.10;9.40;;;11.00;99.90;;;;;;5221740;28;20255;-52
2022/10/23 06:10:35;;;;;;;18.17;10.67;;;11.00;99.90;;;;;;5200151;28;20192;-49
2022/10/23 06:13:06;;;;;;;19.07;10.20;;;11.00;99.90;;;;;;5213100;28;20275;-50
2022/10/23 06:15:37;;;;;;;16.57;9.67;;;11.00;99.90;;;;;;5220358;28;20539;-51
2022/10/23 06:18:07;;;;;;;14.80;10.97;;;11.10;99.90;;;;;;5203551;28;20701;-51
2022/10/23 06:20:38;;;;;;;14.73;9.67;;;11.10;99.90;;;;;;5218013;28;20180;-52
2022/10/23 06:23:09;;;;;;;12.00;9.53;;;11.20;99.90;;;;;;5204568;28;20176;-51
2022/10/23 06:25:39;;;;;;;13.50;9.33;;;11.20;99.90;;;;;;5206726;28;20181;-50
2022/10/23 06:28:10;;;;;;;17.60;9.17;;;11.30;99.90;;;;;;5204780;28;20179;-49
2022/10/23 06:30:40;;;;;;;13.20;9.60;;;11.50;99.90;;;;;;5205239;28;20208;-52
2022/10/23 06:33:11;;;;;;;12.93;8.93;;;11.70;99.90;;;;;;5205316;28;20206;-51
2022/10/23 06:35:42;;;;;;;19.90;8.90;;;11.90;99.90;;;;;;5204407;28;20197;-52
2022/10/23 06:38:14;;;;;;;22.17;9.97;;;12.20;99.90;;;;;;5222346;28;20234;-51
2022/10/23 06:40:54;;;;;;;16.87;9.57;;;12.40;99.90;;;;;;5204338;28;20484;-54
2022/10/23 06:43:25;;;;;;;17.10;10.47;;;12.50;99.90;;;;;;5219608;28;20972;-51
2022/10/23 06:45:59;;;;;;;13.93;8.83;;;12.60;99.90;;;;;;5206944;28;20443;-53
2022/10/23 06:48:30;;;;;;;13.07;8.70;;;12.80;99.90;;;;;;5220707;28;20230;-52
2022/10/23 06:51:08;;;;;;;16.80;9.97;;;13.10;99.90;;;;;;5204950;28;20461;-54
2022/10/23 06:53:39;;;;;;;17.07;9.77;;;13.60;99.90;;;;;;5217052;28;20444;-52
2022/10/23 06:56:10;;;;;;;13.00;8.53;;;14.20;99.90;;;;;;5220165;28;20442;-50
2022/10/23 06:58:41;;;;;;;8.23;7.10;;;14.80;99.90;;;;;;5201890;28;20212;-52
2022/10/23 07:01:13;;;;;;;11.73;7.70;;;15.00;99.90;;;;;;5204895;28;20814;-52
2022/10/23 07:03:43;;;;;;;12.90;7.43;;;15.00;99.90;;;;;;5204358;28;20604;-52
2022/10/23 07:06:14;;;;;;;10.90;7.03;;;14.80;99.90;;;;;;5203480;28;20470;-51
2022/10/23 07:08:45;;;;;;;17.93;7.33;;;14.70;99.90;;;;;;5204488;28;20235;-52
2022/10/23 07:11:15;;;;;;;7.33;6.60;;;14.50;99.90;;;;;;5205558;28;20218;-52
2022/10/23 07:13:46;;;;;;;9.97;7.40;;;14.50;99.90;;;;;;5199439;28;20214;-51
2022/10/23 07:16:19;;;;;;;9.97;7.03;;;14.50;99.90;;;;;;5198124;28;20182;-50
2022/10/23 07:18:58;;;;;;;10.00;7.53;;;14.40;99.90;;;;;;5199660;28;20208;-52
2022/10/23 07:21:34;;;;;;;8.33;7.50;;;14.40;99.90;;;;;;5202827;28;20426;-53
2022/10/23 07:24:05;;;;;;;11.70;8.73;;;14.40;99.90;;;;;;5202114;28;20469;-52
2022/10/23 07:26:36;;;;;;;15.33;7.87;;;14.40;99.90;;;;;;5200184;28;20438;-51
2022/10/23 07:29:06;;;;;;;9.43;7.17;;;14.50;99.90;;;;;;5193147;28;20820;-54
2022/10/23 07:31:37;;;;;;;11.40;9.60;;;14.50;99.90;;;;;;5202809;28;20183;-52
2022/10/23 07:34:09;;;;;;;14.63;7.47;;;14.50;99.90;;;;;;5217941;28;20175;-53
2022/10/23 07:36:40;;;;;;;11.20;8.10;;;14.50;99.90;;;;;;5221372;28;20179;-52
2022/10/23 07:39:10;;;;;;;13.30;8.93;;;14.50;99.90;;;;;;5203786;28;20803;-52
2022/10/23 07:41:41;;;;;;;15.43;8.40;;;14.50;99.90;;;;;;5221327;28;20194;-51
2022/10/23 07:44:12;;;;;;;17.90;7.60;;;14.50;99.90;;;;;;5203086;28;20196;-52
2022/10/23 07:46:42;;;;;;;9.60;7.47;;;14.60;99.90;;;;;;5217334;28;20270;-51
2022/10/23 07:49:13;;;;;;;18.30;6.87;;;14.60;99.90;;;;;;5205075;28;20215;-52
2022/10/23 07:51:43;;;;;;;8.43;6.43;;;14.70;99.90;;;;;;5204860;28;20179;-53
2022/10/23 07:54:14;;;;;;;8.03;6.63;;;14.70;99.90;;;;;;5205126;28;20192;-52
2022/10/23 07:56:45;;;;;;;10.50;6.30;;;14.80;99.90;;;;;;5220704;28;20218;-53
2022/10/23 07:59:15;;;;;;;17.60;6.40;;;14.80;99.90;;;;;;5204956;28;20241;-53
2022/10/23 08:01:47;;;;;;;9.30;6.20;;;14.80;99.90;;;;;;5219479;28;20273;-52
2022/10/23 08:04:18;;;;;;;14.80;6.67;;;14.90;99.90;;;;;;5197744;28;20636;-51
2022/10/23 08:06:48;;;;;;;6.87;6.20;;;15.20;99.90;;;;;;5203944;28;20492;-52
2022/10/23 08:09:19;;;;;;;8.50;6.83;;;15.40;99.90;;;;;;5195314;28;20798;-52
2022/10/23 08:11:50;;;;;;;13.07;6.53;;;15.30;99.90;;;;;;5197395;28;20187;-52
2022/10/23 08:14:20;;;;;;;12.37;6.63;;;15.30;99.90;;;;;;5213260;28;20194;-51
2022/10/23 08:16:51;;;;;;;15.17;5.53;;;15.50;99.90;;;;;;5195264;28;20215;-52
2022/10/23 08:19:21;;;;;;;7.40;6.43;;;15.50;99.90;;;;;;5199927;28;20204;-53
2022/10/23 08:21:56;;;;;;;11.40;6.50;;;15.50;99.90;;;;;;5202541;28;20692;-51
2022/10/23 08:24:26;;;;;;;5.27;4.77;;;15.50;99.90;;;;;;5199607;28;20186;-53
2022/10/23 08:26:57;;;;;;;14.03;5.37;;;15.40;99.90;;;;;;5199281;28;20932;-52
2022/10/23 08:29:28;;;;;;;8.47;5.70;;;15.50;99.90;;;;;;5204967;28;20234;-52
2022/10/23 08:31:58;;;;;;;7.70;5.47;;;15.40;99.90;;;;;;5217956;28;21152;-53
2022/10/23 08:34:30;;;;;;;7.37;5.80;;;15.30;99.90;;;;;;5186944;28;20199;-49
2022/10/23 08:37:00;;;;;;;5.73;5.17;;;15.20;99.90;;;;;;5200923;28;20207;-52
2022/10/23 08:39:31;;;;;;;7.03;6.13;;;15.10;99.90;;;;;;5210082;28;20470;-51
2022/10/23 08:42:02;;;;;;;5.63;5.13;;;15.10;99.90;;;;;;5194720;28;20254;-51
2022/10/23 08:44:47;;;;;;;13.27;6.97;;;15.10;99.90;;;;;;5200905;28;20187;-52
2022/10/23 08:47:38;;;;;;;8.27;5.70;;;15.10;99.90;;;;;;5217806;28;20226;-52
2022/10/23 08:50:24;;;;;;;13.20;6.17;;;15.10;99.90;;;;;;5200966;28;20472;-50
2022/10/23 08:53:37;;;;;;;10.00;6.30;;;15.20;99.90;;;;;;5201751;28;20504;-54
2022/10/23 08:56:27;;;;;;;7.53;6.03;;;15.20;99.90;;;;;;5201188;28;20860;-52
2022/10/23 08:59:21;;;;;;;13.10;5.90;;;15.20;99.90;;;;;;5198735;28;20557;-53
2022/10/23 09:02:01;;;;;;;10.43;6.23;;;15.30;99.90;;;;;;5218643;28;20501;-52
2022/10/23 09:04:31;;;;;;;8.60;5.93;;;15.30;99.90;;;;;;5199083;28;20437;-53
2022/10/23 09:07:05;;;;;;;7.97;4.63;;;15.30;99.90;;;;;;5204670;28;20438;-53
2022/10/23 09:09:37;;;;;;;9.53;5.10;;;15.20;99.90;;;;;;5201093;28;20204;-52
2022/10/23 09:12:11;;;;;;;8.40;5.67;;;15.20;99.90;;;;;;5199358;28;20446;-53
2022/10/23 09:15:13;;;;;;;9.53;4.60;;;15.20;99.90;;;;;;5200337;28;20467;-53
2022/10/23 09:17:44;;;;;;;13.00;5.80;;;15.20;99.90;;;;;;5204085;28;20892;-53
2022/10/23 09:20:27;;;;;;;6.80;4.80;;;15.30;99.90;;;;;;5197604;28;20454;-53
2022/10/23 09:23:16;;;;;;;7.50;4.60;;;15.30;99.90;;;;;;5206539;28;20476;-53
2022/10/23 09:25:54;;;;;;;5.23;4.57;;;15.40;99.90;;;;;;5203726;28;20442;-53
2022/10/23 09:28:29;;;;;;;4.67;4.17;;;15.60;99.90;;;;;;5200344;28;20465;-52
2022/10/23 09:31:07;;;;;;;5.17;4.67;;;15.70;99.90;;;;;;5200865;28;20438;-52
2022/10/23 09:33:39;;;;;;;5.40;4.53;;;15.70;99.90;;;;;;5204064;28;20434;-50
2022/10/23 09:36:12;;;;;;;7.90;5.07;;;15.70;99.90;;;;;;5197769;28;20445;-51
2022/10/23 09:38:47;;;;;;;4.77;4.23;;;15.80;99.90;;;;;;5217498;28;20465;-51
2022/10/23 09:41:38;;;;;;;7.80;5.20;;;15.80;99.90;;;;;;5221977;28;20440;-52
2022/10/23 09:44:18;;;;;;;8.57;5.20;;;15.90;99.90;;;;;;5205058;28;20425;-53
2022/10/23 09:46:58;;;;;;;8.40;4.67;;;16.00;99.90;;;;;;5204568;28;20533;-54
2022/10/23 09:49:30;;;;;;;7.80;3.57;;;16.00;99.90;;;;;;5206963;28;20849;-51
2022/10/23 09:52:20;;;;;;;12.40;5.20;;;16.10;99.90;;;;;;5198835;28;20434;-53
2022/10/23 09:55:00;;;;;;;9.67;4.50;;;16.20;99.90;;;;;;5217566;28;20453;-55
2022/10/23 09:57:30;;;;;;;4.40;4.00;;;16.30;99.90;;;;;;5221748;28;20477;-55
2022/10/23 10:00:23;;;;;;;7.17;4.80;;;16.40;99.90;;;;;;5218228;28;20977;-52
2022/10/23 10:03:05;;;;;;;4.57;4.20;;;16.50;99.90;;;;;;5200033;28;20188;-53
2022/10/23 10:05:38;;;;;;;4.57;4.17;;;16.50;99.90;;;;;;5206585;28;20435;-52
2022/10/23 10:08:48;;;;;;;3.77;3.40;;;16.50;99.90;;;;;;5198906;28;20438;-52
2022/10/23 10:11:34;;;;;;;4.50;3.30;;;16.60;99.90;;;;;;5199383;28;20438;-53
2022/10/23 10:14:23;;;;;;;15.03;3.90;;;16.70;99.90;;;;;;5206526;28;20472;-53
2022/10/23 10:17:01;;;;;;;8.30;3.20;;;16.70;99.90;;;;;;5199143;28;20548;-52
2022/10/23 10:19:43;;;;;;;10.03;3.53;;;16.70;99.90;;;;;;5203120;28;20840;-53
2022/10/23 10:22:37;;;;;;;4.13;3.30;;;16.80;99.90;;;;;;5204341;28;20438;-51
2022/10/23 10:25:28;;;;;;;2.90;2.60;;;17.00;99.90;;;;;;5196983;28;20449;-54
2022/10/23 10:28:21;;;;;;;7.00;3.37;;;17.10;99.90;;;;;;5200424;28;20443;-52
2022/10/23 10:31:14;;;;;;;4.00;2.90;;;17.10;99.90;;;;;;5213462;28;20438;-54
2022/10/23 10:34:09;;;;;;;3.60;3.27;;;17.10;99.90;;;;;;5200168;28;20531;-53
2022/10/23 10:36:57;;;;;;;4.37;3.23;;;17.10;99.90;;;;;;5205130;28;20438;-50
2022/10/23 10:39:38;;;;;;;2.90;2.70;;;17.30;99.90;;;;;;5200196;28;20466;-49
2022/10/23 10:42:20;;;;;;;3.20;2.50;;;17.40;99.90;;;;;;5200749;28;20433;-49
2022/10/23 10:45:07;;;;;;;4.87;2.60;;;17.60;99.90;;;;;;5197101;28;20843;-50
2022/10/23 10:48:02;;;;;;;3.73;3.23;;;17.80;99.90;;;;;;5215339;28;20822;-48
2022/10/23 10:51:14;;;;;;;4.50;2.67;;;17.80;99.90;;;;;;5213371;28;20442;-49
2022/10/23 10:54:32;;;;;;;2.23;2.00;;;17.80;99.90;;;;;;5171799;28;20577;-49
2022/10/23 10:57:29;;;;;;;11.60;2.53;;;18.00;99.90;;;;;;5182394;28;20557;-52
2022/10/23 11:00:16;;;;;;;6.53;2.63;;;18.20;99.90;;;;;;5196167;28;20833;-50
2022/10/23 11:02:52;;;;;;;8.17;3.00;;;18.30;99.90;;;;;;5206421;28;20438;-49
2022/10/23 11:05:36;;;;;;;2.53;2.33;;;18.40;99.90;;;;;;5203829;28;20430;-53
2022/10/23 11:08:26;;;;;;;6.07;3.40;;;18.40;99.90;;;;;;5185116;28;20427;-50
2022/10/23 11:11:03;;;;;;;4.33;3.60;;;18.40;99.90;;;;;;5182407;28;20470;-52
2022/10/23 11:13:39;;;;;;;8.77;3.60;;;18.40;99.90;;;;;;5202421;28;20458;-48
2022/10/23 11:16:18;;;;;;;5.33;3.30;;;18.20;99.90;;;;;;5197972;28;22016;-50
2022/10/23 11:19:02;;;;;;;3.70;3.40;;;18.20;99.90;;;;;;5202229;28;20464;-47
2022/10/23 11:22:05;;;;;;;5.90;3.97;;;18.30;99.90;;;;;;5197077;28;20868;-53
2022/10/23 11:24:47;;;;;;;4.80;3.30;;;18.30;99.90;;;;;;5199341;28;20433;-49
2022/10/23 11:27:30;;;;;;;5.93;4.23;;;18.50;99.90;;;;;;5218828;28;20437;-49
2022/10/23 11:30:07;;;;;;;5.93;3.90;;;18.60;99.90;;;;;;5200446;28;20465;-48
2022/10/23 11:32:47;;;;;;;4.83;2.90;;;18.70;99.90;;;;;;5199358;28;20794;-51
2022/10/23 11:35:44;;;;;;;8.33;4.10;;;18.70;99.90;;;;;;5202872;28;20438;-50
2022/10/23 11:38:32;;;;;;;10.40;3.73;;;18.70;99.90;;;;;;5196948;28;20611;-49
2022/10/23 11:41:20;;;;;;;7.00;3.33;;;18.90;99.90;;;;;;5219939;28;20438;-54
2022/10/23 11:44:00;;;;;;;10.80;5.30;;;18.80;99.90;;;;;;5205621;28;20435;-48
2022/10/23 11:46:33;;;;;;;5.40;4.00;;;18.90;99.90;;;;;;5197112;28;21037;-51
2022/10/23 11:49:18;;;;;;;4.10;3.07;;;19.00;99.90;;;;;;5200932;28;20474;-50
2022/10/23 11:51:59;;;;;;;6.20;4.27;;;19.00;99.90;;;;;;5202261;28;20481;-50
2022/10/23 11:54:30;;;;;;;5.63;4.20;;;18.90;99.90;;;;;;5203914;28;20472;-51
2022/10/23 11:57:13;;;;;;;8.63;3.23;;;18.90;99.90;;;;;;5201236;28;20894;-49
2022/10/23 11:59:44;;;;;;;15.73;4.33;;;18.90;99.90;;;;;;5190970;28;21017;-53
2022/10/23 12:02:38;;;;;;;10.20;3.13;;;18.70;99.90;;;;;;5200722;28;20461;-48
2022/10/23 12:05:37;;;;;;;12.27;3.80;;;18.60;99.90;;;;;;5196980;28;20518;-52
2022/10/23 12:08:21;;;;;;;3.73;3.33;;;18.60;99.90;;;;;;5199267;28;21589;-54
2022/10/23 12:10:52;;;;;;;9.63;3.00;;;18.70;99.90;;;;;;5213653;28;20460;-52
2022/10/23 12:13:36;;;;;;;10.13;3.27;;;18.70;99.90;;;;;;5201631;28;20495;-48
2022/10/23 12:16:07;;;;;;;10.03;3.40;;;18.80;99.90;;;;;;5200885;28;20184;-48
2022/10/23 12:18:52;;;;;;;3.43;2.80;;;18.80;99.90;;;;;;5204020;28;20489;-54
2022/10/23 12:21:27;;;;;;;2.60;2.40;;;18.90;99.90;;;;;;5213590;28;20187;-47
2022/10/23 12:24:26;;;;;;;3.70;2.60;;;19.00;99.90;;;;;;5202048;28;20446;-48
2022/10/23 12:27:11;;;;;;;10.60;3.17;;;19.10;99.90;;;;;;5170059;28;20449;-51
2022/10/23 12:30:00;;;;;;;3.77;2.40;;;19.30;99.90;;;;;;5196824;28;20986;-49
2022/10/23 12:32:47;;;;;;;3.80;2.60;;;19.40;99.90;;;;;;5216027;28;21184;-52
2022/10/23 12:35:47;;;;;;;3.77;2.70;;;19.30;99.90;;;;;;5199094;28;20450;-48
2022/10/23 12:38:25;;;;;;;3.27;2.50;;;19.20;99.90;;;;;;5193630;28;20512;-50
2022/10/23 12:41:03;;;;;;;7.60;2.40;;;19.10;99.90;;;;;;5202267;28;20448;-48
2022/10/23 12:43:36;;;;;;;10.60;3.67;;;19.30;99.90;;;;;;5198176;28;20422;-49
2022/10/23 12:46:21;;;;;;;4.30;2.27;;;19.10;99.90;;;;;;5201197;28;20437;-48
2022/10/23 12:48:53;;;;;;;12.33;2.77;;;19.10;99.90;;;;;;5189895;28;20459;-48
2022/10/23 12:51:30;;;;;;;2.83;2.40;;;19.00;99.90;;;;;;5212830;28;20435;-48
2022/10/23 12:54:01;;;;;;;7.03;1.90;;;19.00;99.90;;;;;;5198119;28;20482;-46
2022/10/23 12:56:37;;;;;;;2.30;2.20;;;18.90;99.90;;;;;;5201174;28;20434;-47
2022/10/23 12:59:17;;;;;;;20.73;6.17;;;18.90;99.90;;;;;;5202784;28;20492;-48
2022/10/23 13:01:48;;;;;;;5.30;3.30;;;18.90;99.90;;;;;;5199947;28;20416;-48
2022/10/23 13:04:27;;;;;;;3.27;2.10;;;18.90;99.90;;;;;;5214895;28;20425;-49
2022/10/23 13:07:01;;;;;;;6.83;2.47;;;18.90;99.90;;;;;;5203633;28;20175;-49
2022/10/23 13:09:39;;;;;;;5.10;2.23;;;18.90;99.90;;;;;;5206334;28;20973;-48
2022/10/23 13:12:21;;;;;;;4.47;2.90;;;18.90;99.90;;;;;;5203292;28;20628;-48
2022/10/23 13:15:07;;;;;;;3.17;2.60;;;19.10;99.90;;;;;;5198187;28;20470;-47
2022/10/23 13:17:40;;;;;;;2.57;2.03;;;19.10;99.90;;;;;;5198193;28;20600;-47
2022/10/23 13:20:34;;;;;;;2.53;2.33;;;19.00;99.90;;;;;;5198978;28;20437;-49
2022/10/23 13:23:17;;;;;;;3.97;2.50;;;18.90;99.90;;;;;;5198016;28;20423;-49
2022/10/23 13:25:55;;;;;;;7.90;2.27;;;18.80;99.90;;;;;;5203619;28;20925;-46
2022/10/23 13:28:30;;;;;;;11.30;4.60;;;18.80;99.90;;;;;;5197370;28;21073;-48
2022/10/23 13:31:06;;;;;;;4.00;1.93;;;18.70;99.90;;;;;;5199595;28;20529;-50
2022/10/23 13:33:39;;;;;;;4.73;2.33;;;18.70;99.90;;;;;;5220503;28;20441;-47